Bella Vista, Arkansas
Current Conditions -  °F | °C
As of 2:35 AM on Wednesday 26 Nov 2014 (Local Time) from KVBT Reporting Station
Clear Clear  
Wind Chill: -3°   Ceiling: Unl
Heat Index:   Visibility: 10mi
Dew Point: -6°   Wind: 5mph
Humidity: 64%   Direction: 150°SSE
Pressure: 30.01"   Gusts: NA
Location:  36.48°N, 94.25°W
Report Text: KVBT 260835Z AUTO 15004KT 10SM CLR 00/M06 A3001 RMK AO1
Loading
Personal Weather Stations






























Interactive Weather Map New forecast layout! Learn more

10-Day Weather Forecast

Advertisements
Track Severe Weather on mobile